sensor_id;sensor_type;location;lat;lon;timestamp;P1;durP1;ratioP1;P2;durP2;ratioP2
36585;SDS011;22591;48.314;11.562;2023-07-08T00:00:41;6.38;;;4.03;;
36585;SDS011;22591;48.314;11.562;2023-07-08T00:03:07;4.85;;;4.45;;
36585;SDS011;22591;48.314;11.562;2023-07-08T00:05:33;4.95;;;4.38;;
36585;SDS011;22591;48.314;11.562;2023-07-08T00:07:59;4.82;;;4.38;;
36585;SDS011;22591;48.314;11.562;2023-07-08T00:10:25;5.00;;;4.60;;
36585;SDS011;22591;48.314;11.562;2023-07-08T00:12:52;6.85;;;4.45;;
36585;SDS011;22591;48.314;11.562;2023-07-08T00:15:29;4.75;;;4.25;;
36585;SDS011;22591;48.314;11.562;2023-07-08T00:18:00;4.82;;;4.30;;
36585;SDS011;22591;48.314;11.562;2023-07-08T00:20:29;5.53;;;4.85;;
36585;SDS011;22591;48.314;11.562;2023-07-08T00:22:56;4.60;;;4.18;;
36585;SDS011;22591;48.314;11.562;2023-07-08T00:25:26;4.97;;;3.83;;
36585;SDS011;22591;48.314;11.562;2023-07-08T00:27:52;4.40;;;4.00;;
36585;SDS011;22591;48.314;11.562;2023-07-08T00:30:19;4.15;;;3.85;;
36585;SDS011;22591;48.314;11.562;2023-07-08T00:32:47;4.85;;;4.18;;
36585;SDS011;22591;48.314;11.562;2023-07-08T00:37:53;4.60;;;4.30;;
36585;SDS011;22591;48.314;11.562;2023-07-08T00:40:20;4.63;;;4.05;;
36585;SDS011;22591;48.314;11.562;2023-07-08T00:42:46;4.90;;;4.50;;
36585;SDS011;22591;48.314;11.562;2023-07-08T00:46:01;4.90;;;4.50;;
36585;SDS011;22591;48.314;11.562;2023-07-08T00:48:00;7.13;;;4.35;;
36585;SDS011;22591;48.314;11.562;2023-07-08T00:50:32;5.82;;;4.03;;
36585;SDS011;22591;48.314;11.562;2023-07-08T00:56:00;4.57;;;4.28;;
36585;SDS011;22591;48.314;11.562;2023-07-08T00:59:03;5.00;;;4.35;;
36585;SDS011;22591;48.314;11.562;2023-07-08T01:01:23;5.22;;;4.72;;
36585;SDS011;22591;48.314;11.562;2023-07-08T01:03:54;5.82;;;4.65;;
36585;SDS011;22591;48.314;11.562;2023-07-08T01:06:26;6.70;;;4.20;;
36585;SDS011;22591;48.314;11.562;2023-07-08T01:08:56;4.65;;;4.18;;
36585;SDS011;22591;48.314;11.562;2023-07-08T01:11:24;6.75;;;4.25;;
36585;SDS011;22591;48.314;11.562;2023-07-08T01:13:50;6.50;;;4.70;;
36585;SDS011;22591;48.314;11.562;2023-07-08T01:16:16;5.07;;;4.13;;
36585;SDS011;22591;48.314;11.562;2023-07-08T01:18:42;4.75;;;4.35;;
36585;SDS011;22591;48.314;11.562;2023-07-08T01:23:59;4.57;;;4.18;;
36585;SDS011;22591;48.314;11.562;2023-07-08T01:26:27;5.38;;;4.93;;
36585;SDS011;22591;48.314;11.562;2023-07-08T01:28:55;5.00;;;4.60;;
36585;SDS011;22591;48.314;11.562;2023-07-08T01:31:22;4.70;;;4.15;;
36585;SDS011;22591;48.314;11.562;2023-07-08T01:33:48;4.97;;;4.57;;
36585;SDS011;22591;48.314;11.562;2023-07-08T01:36:13;4.50;;;4.10;;
36585;SDS011;22591;48.314;11.562;2023-07-08T01:38:39;6.07;;;4.80;;
36585;SDS011;22591;48.314;11.562;2023-07-08T01:41:06;4.82;;;4.32;;
36585;SDS011;22591;48.314;11.562;2023-07-08T01:43:36;4.93;;;4.10;;
36585;SDS011;22591;48.314;11.562;2023-07-08T01:46:02;6.18;;;4.63;;
36585;SDS011;22591;48.314;11.562;2023-07-08T01:48:30;5.03;;;4.55;;
36585;SDS011;22591;48.314;11.562;2023-07-08T01:51:03;7.05;;;4.55;;
36585;SDS011;22591;48.314;11.562;2023-07-08T01:53:34;8.50;;;4.93;;
36585;SDS011;22591;48.314;11.562;2023-07-08T01:56:01;6.10;;;4.53;;
36585;SDS011;22591;48.314;11.562;2023-07-08T01:58:28;5.15;;;4.68;;
36585;SDS011;22591;48.314;11.562;2023-07-08T02:00:54;6.65;;;5.05;;
36585;SDS011;22591;48.314;11.562;2023-07-08T02:03:20;4.88;;;4.45;;
36585;SDS011;22591;48.314;11.562;2023-07-08T02:05:46;5.25;;;4.85;;
36585;SDS011;22591;48.314;11.562;2023-07-08T02:08:11;5.82;;;4.60;;
36585;SDS011;22591;48.314;11.562;2023-07-08T02:10:38;4.85;;;4.45;;
36585;SDS011;22591;48.314;11.562;2023-07-08T02:13:04;5.10;;;4.47;;
36585;SDS011;22591;48.314;11.562;2023-07-08T02:15:30;4.57;;;4.18;;
36585;SDS011;22591;48.314;11.562;2023-07-08T02:17:56;4.90;;;4.57;;
36585;SDS011;22591;48.314;11.562;2023-07-08T02:20:21;6.35;;;4.70;;
36585;SDS011;22591;48.314;11.562;2023-07-08T02:22:47;5.60;;;4.97;;
36585;SDS011;22591;48.314;11.562;2023-07-08T02:25:13;5.18;;;4.68;;
36585;SDS011;22591;48.314;11.562;2023-07-08T02:27:38;7.70;;;5.13;;
36585;SDS011;22591;48.314;11.562;2023-07-08T02:30:04;5.15;;;4.55;;
36585;SDS011;22591;48.314;11.562;2023-07-08T02:32:31;5.20;;;4.72;;
36585;SDS011;22591;48.314;11.562;2023-07-08T02:34:59;5.15;;;4.65;;
36585;SDS011;22591;48.314;11.562;2023-07-08T02:37:25;6.68;;;4.75;;
36585;SDS011;22591;48.314;11.562;2023-07-08T02:39:51;4.82;;;4.40;;
36585;SDS011;22591;48.314;11.562;2023-07-08T02:42:16;5.03;;;4.55;;
36585;SDS011;22591;48.314;11.562;2023-07-08T02:44:42;5.20;;;4.78;;
36585;SDS011;22591;48.314;11.562;2023-07-08T02:47:07;5.15;;;4.72;;
36585;SDS011;22591;48.314;11.562;2023-07-08T02:49:33;5.07;;;4.57;;
36585;SDS011;22591;48.314;11.562;2023-07-08T02:51:58;5.35;;;4.85;;
36585;SDS011;22591;48.314;11.562;2023-07-08T02:54:24;5.25;;;4.70;;
36585;SDS011;22591;48.314;11.562;2023-07-08T02:56:50;6.20;;;5.10;;
36585;SDS011;22591;48.314;11.562;2023-07-08T02:59:15;6.55;;;5.10;;
36585;SDS011;22591;48.314;11.562;2023-07-08T03:01:41;5.07;;;4.57;;
36585;SDS011;22591;48.314;11.562;2023-07-08T03:04:07;5.85;;;4.55;;
36585;SDS011;22591;48.314;11.562;2023-07-08T03:06:38;5.65;;;5.20;;
36585;SDS011;22591;48.314;11.562;2023-07-08T03:09:05;4.85;;;4.45;;
36585;SDS011;22591;48.314;11.562;2023-07-08T03:11:31;4.68;;;4.38;;
36585;SDS011;22591;48.314;11.562;2023-07-08T03:13:56;6.30;;;4.80;;
36585;SDS011;22591;48.314;11.562;2023-07-08T03:16:22;5.50;;;5.00;;
36585;SDS011;22591;48.314;11.562;2023-07-08T03:18:47;4.95;;;4.47;;
36585;SDS011;22591;48.314;11.562;2023-07-08T03:21:14;5.68;;;5.05;;
36585;SDS011;22591;48.314;11.562;2023-07-08T03:23:41;4.70;;;4.30;;
36585;SDS011;22591;48.314;11.562;2023-07-08T03:26:07;5.00;;;4.50;;
36585;SDS011;22591;48.314;11.562;2023-07-08T03:28:37;6.25;;;4.90;;
36585;SDS011;22591;48.314;11.562;2023-07-08T03:31:03;4.70;;;4.40;;
36585;SDS011;22591;48.314;11.562;2023-07-08T03:33:28;5.13;;;4.72;;
36585;SDS011;22591;48.314;11.562;2023-07-08T03:35:54;5.65;;;5.15;;
36585;SDS011;22591;48.314;11.562;2023-07-08T03:38:20;4.85;;;4.45;;
36585;SDS011;22591;48.314;11.562;2023-07-08T03:40:45;5.18;;;4.65;;
36585;SDS011;22591;48.314;11.562;2023-07-08T03:43:11;5.53;;;5.00;;
36585;SDS011;22591;48.314;11.562;2023-07-08T03:45:36;4.65;;;4.35;;
36585;SDS011;22591;48.314;11.562;2023-07-08T03:48:02;5.70;;;5.22;;
36585;SDS011;22591;48.314;11.562;2023-07-08T03:50:28;5.43;;;4.93;;
36585;SDS011;22591;48.314;11.562;2023-07-08T03:52:54;5.07;;;4.47;;
36585;SDS011;22591;48.314;11.562;2023-07-08T03:55:20;4.90;;;4.50;;
36585;SDS011;22591;48.314;11.562;2023-07-08T03:57:46;5.13;;;4.72;;
36585;SDS011;22591;48.314;11.562;2023-07-08T04:00:12;5.05;;;4.65;;
36585;SDS011;22591;48.314;11.562;2023-07-08T04:02:39;5.55;;;5.13;;
36585;SDS011;22591;48.314;11.562;2023-07-08T04:05:06;5.45;;;4.95;;
36585;SDS011;22591;48.314;11.562;2023-07-08T04:07:33;5.20;;;4.70;;
36585;SDS011;22591;48.314;11.562;2023-07-08T04:09:59;5.63;;;5.20;;
36585;SDS011;22591;48.314;11.562;2023-07-08T04:12:24;8.00;;;5.43;;
36585;SDS011;22591;48.314;11.562;2023-07-08T04:14:50;5.30;;;4.82;;
36585;SDS011;22591;48.314;11.562;2023-07-08T04:17:15;5.53;;;5.03;;
36585;SDS011;22591;48.314;11.562;2023-07-08T04:19:43;5.55;;;4.90;;
36585;SDS011;22591;48.314;11.562;2023-07-08T04:22:09;6.07;;;5.57;;
36585;SDS011;22591;48.314;11.562;2023-07-08T04:24:35;5.32;;;4.28;;
36585;SDS011;22591;48.314;11.562;2023-07-08T04:27:01;5.35;;;4.75;;
36585;SDS011;22591;48.314;11.562;2023-07-08T04:29:27;5.10;;;4.70;;
36585;SDS011;22591;48.314;11.562;2023-07-08T04:31:53;5.00;;;4.60;;
36585;SDS011;22591;48.314;11.562;2023-07-08T04:34:18;5.10;;;4.72;;
36585;SDS011;22591;48.314;11.562;2023-07-08T04:36:45;8.95;;;5.32;;
36585;SDS011;22591;48.314;11.562;2023-07-08T04:39:11;4.82;;;4.40;;
36585;SDS011;22591;48.314;11.562;2023-07-08T04:41:38;5.25;;;4.85;;
36585;SDS011;22591;48.314;11.562;2023-07-08T04:44:06;5.10;;;4.70;;
36585;SDS011;22591;48.314;11.562;2023-07-08T04:46:36;6.63;;;4.15;;
36585;SDS011;22591;48.314;11.562;2023-07-08T04:49:19;5.57;;;5.15;;
36585;SDS011;22591;48.314;11.562;2023-07-08T04:51:45;5.30;;;4.90;;
36585;SDS011;22591;48.314;11.562;2023-07-08T04:54:11;5.78;;;5.22;;
36585;SDS011;22591;48.314;11.562;2023-07-08T04:56:47;5.63;;;5.07;;
36585;SDS011;22591;48.314;11.562;2023-07-08T04:59:17;5.90;;;5.40;;
36585;SDS011;22591;48.314;11.562;2023-07-08T05:01:50;5.60;;;5.10;;
36585;SDS011;22591;48.314;11.562;2023-07-08T05:04:17;5.40;;;4.90;;
36585;SDS011;22591;48.314;11.562;2023-07-08T05:06:44;5.93;;;5.43;;
36585;SDS011;22591;48.314;11.562;2023-07-08T05:09:09;6.30;;;5.40;;
36585;SDS011;22591;48.314;11.562;2023-07-08T05:11:35;6.25;;;5.75;;
36585;SDS011;22591;48.314;11.562;2023-07-08T05:14:01;5.85;;;5.28;;
36585;SDS011;22591;48.314;11.562;2023-07-08T05:16:27;4.50;;;4.20;;
36585;SDS011;22591;48.314;11.562;2023-07-08T05:18:53;5.78;;;5.10;;
36585;SDS011;22591;48.314;11.562;2023-07-08T05:21:19;7.88;;;5.90;;
36585;SDS011;22591;48.314;11.562;2023-07-08T05:23:46;5.75;;;5.25;;
36585;SDS011;22591;48.314;11.562;2023-07-08T05:26:14;7.97;;;5.53;;
36585;SDS011;22591;48.314;11.562;2023-07-08T05:28:40;5.93;;;5.32;;
36585;SDS011;22591;48.314;11.562;2023-07-08T05:31:06;6.45;;;5.60;;
36585;SDS011;22591;48.314;11.562;2023-07-08T05:33:32;5.80;;;5.30;;
36585;SDS011;22591;48.314;11.562;2023-07-08T05:35:58;6.50;;;5.90;;
36585;SDS011;22591;48.314;11.562;2023-07-08T05:38:24;7.78;;;5.78;;
36585;SDS011;22591;48.314;11.562;2023-07-08T05:40:50;6.97;;;6.32;;
36585;SDS011;22591;48.314;11.562;2023-07-08T05:43:18;6.18;;;5.57;;
36585;SDS011;22591;48.314;11.562;2023-07-08T05:45:44;5.50;;;5.10;;
36585;SDS011;22591;48.314;11.562;2023-07-08T05:48:10;4.97;;;4.47;;
36585;SDS011;22591;48.314;11.562;2023-07-08T05:50:36;6.22;;;5.22;;
36585;SDS011;22591;48.314;11.562;2023-07-08T05:53:02;6.35;;;5.85;;
36585;SDS011;22591;48.314;11.562;2023-07-08T05:55:28;6.18;;;5.40;;
36585;SDS011;22591;48.314;11.562;2023-07-08T05:57:54;5.78;;;5.28;;
36585;SDS011;22591;48.314;11.562;2023-07-08T06:00:19;5.18;;;4.78;;
36585;SDS011;22591;48.314;11.562;2023-07-08T06:02:45;6.30;;;5.68;;
36585;SDS011;22591;48.314;11.562;2023-07-08T06:05:10;5.47;;;4.97;;
36585;SDS011;22591;48.314;11.562;2023-07-08T06:07:36;9.63;;;6.25;;
36585;SDS011;22591;48.314;11.562;2023-07-08T06:10:02;6.43;;;5.57;;
36585;SDS011;22591;48.314;11.562;2023-07-08T06:12:28;10.40;;;5.43;;
36585;SDS011;22591;48.314;11.562;2023-07-08T06:14:55;5.25;;;4.75;;
36585;SDS011;22591;48.314;11.562;2023-07-08T06:17:21;9.07;;;5.45;;
36585;SDS011;22591;48.314;11.562;2023-07-08T06:19:47;5.72;;;5.22;;
36585;SDS011;22591;48.314;11.562;2023-07-08T06:22:12;5.50;;;4.97;;
36585;SDS011;22591;48.314;11.562;2023-07-08T06:24:38;5.63;;;5.22;;
36585;SDS011;22591;48.314;11.562;2023-07-08T06:27:05;6.97;;;5.97;;
36585;SDS011;22591;48.314;11.562;2023-07-08T06:29:30;6.07;;;5.22;;
36585;SDS011;22591;48.314;11.562;2023-07-08T06:31:58;5.90;;;5.35;;
36585;SDS011;22591;48.314;11.562;2023-07-08T06:34:24;7.47;;;5.63;;
36585;SDS011;22591;48.314;11.562;2023-07-08T06:36:49;7.05;;;6.45;;
36585;SDS011;22591;48.314;11.562;2023-07-08T06:39:16;6.53;;;5.95;;
36585;SDS011;22591;48.314;11.562;2023-07-08T06:41:42;5.28;;;4.88;;
36585;SDS011;22591;48.314;11.562;2023-07-08T06:44:08;6.22;;;5.82;;
36585;SDS011;22591;48.314;11.562;2023-07-08T06:46:34;6.88;;;6.30;;
36585;SDS011;22591;48.314;11.562;2023-07-08T06:48:59;6.47;;;5.68;;
36585;SDS011;22591;48.314;11.562;2023-07-08T06:51:25;6.63;;;6.03;;
36585;SDS011;22591;48.314;11.562;2023-07-08T06:53:51;6.05;;;5.53;;
36585;SDS011;22591;48.314;11.562;2023-07-08T06:56:17;5.97;;;5.55;;
36585;SDS011;22591;48.314;11.562;2023-07-08T06:58:43;6.05;;;5.55;;
36585;SDS011;22591;48.314;11.562;2023-07-08T07:01:08;6.13;;;5.60;;
36585;SDS011;22591;48.314;11.562;2023-07-08T07:03:34;5.90;;;5.40;;
36585;SDS011;22591;48.314;11.562;2023-07-08T07:05:59;6.40;;;5.80;;
36585;SDS011;22591;48.314;11.562;2023-07-08T07:08:25;6.60;;;6.00;;
36585;SDS011;22591;48.314;11.562;2023-07-08T07:10:50;6.57;;;5.93;;
36585;SDS011;22591;48.314;11.562;2023-07-08T07:13:16;7.35;;;6.70;;
36585;SDS011;22591;48.314;11.562;2023-07-08T07:15:42;7.32;;;6.70;;
36585;SDS011;22591;48.314;11.562;2023-07-08T07:18:07;8.30;;;6.32;;
36585;SDS011;22591;48.314;11.562;2023-07-08T07:20:33;10.75;;;6.40;;
36585;SDS011;22591;48.314;11.562;2023-07-08T07:23:01;7.55;;;6.78;;
36585;SDS011;22591;48.314;11.562;2023-07-08T07:25:26;6.60;;;5.88;;
36585;SDS011;22591;48.314;11.562;2023-07-08T07:27:52;6.32;;;5.72;;
36585;SDS011;22591;48.314;11.562;2023-07-08T07:30:17;8.50;;;6.45;;
36585;SDS011;22591;48.314;11.562;2023-07-08T07:32:43;6.47;;;5.90;;
36585;SDS011;22591;48.314;11.562;2023-07-08T07:35:10;8.45;;;7.22;;
36585;SDS011;22591;48.314;11.562;2023-07-08T07:37:38;7.97;;;7.22;;
36585;SDS011;22591;48.314;11.562;2023-07-08T07:40:06;12.07;;;6.57;;
36585;SDS011;22591;48.314;11.562;2023-07-08T07:42:37;7.97;;;7.05;;
36585;SDS011;22591;48.314;11.562;2023-07-08T07:45:04;6.88;;;6.28;;
36585;SDS011;22591;48.314;11.562;2023-07-08T07:47:30;8.48;;;6.40;;
36585;SDS011;22591;48.314;11.562;2023-07-08T07:49:56;6.45;;;5.95;;
36585;SDS011;22591;48.314;11.562;2023-07-08T07:52:22;7.85;;;7.05;;
36585;SDS011;22591;48.314;11.562;2023-07-08T07:54:49;7.15;;;6.45;;
36585;SDS011;22591;48.314;11.562;2023-07-08T07:57:16;7.40;;;6.57;;
36585;SDS011;22591;48.314;11.562;2023-07-08T07:59:41;7.88;;;7.03;;
36585;SDS011;22591;48.314;11.562;2023-07-08T08:02:07;7.75;;;7.05;;
36585;SDS011;22591;48.314;11.562;2023-07-08T08:04:33;10.32;;;7.13;;
36585;SDS011;22591;48.314;11.562;2023-07-08T08:06:59;9.93;;;7.18;;
36585;SDS011;22591;48.314;11.562;2023-07-08T08:09:25;7.05;;;6.53;;
36585;SDS011;22591;48.314;11.562;2023-07-08T08:11:50;7.55;;;6.85;;
36585;SDS011;22591;48.314;11.562;2023-07-08T08:14:17;8.27;;;7.50;;
36585;SDS011;22591;48.314;11.562;2023-07-08T08:16:42;8.00;;;6.43;;
36585;SDS011;22591;48.314;11.562;2023-07-08T08:19:08;6.80;;;6.20;;
36585;SDS011;22591;48.314;11.562;2023-07-08T08:21:34;6.80;;;6.00;;
36585;SDS011;22591;48.314;11.562;2023-07-08T08:24:00;7.65;;;6.85;;
36585;SDS011;22591;48.314;11.562;2023-07-08T08:26:25;9.65;;;7.40;;
36585;SDS011;22591;48.314;11.562;2023-07-08T08:28:51;8.90;;;6.97;;
36585;SDS011;22591;48.314;11.562;2023-07-08T08:31:17;8.13;;;7.00;;
36585;SDS011;22591;48.314;11.562;2023-07-08T08:33:43;8.02;;;7.30;;
36585;SDS011;22591;48.314;11.562;2023-07-08T08:36:09;8.35;;;7.55;;
36585;SDS011;22591;48.314;11.562;2023-07-08T08:38:34;8.65;;;7.72;;
36585;SDS011;22591;48.314;11.562;2023-07-08T08:41:04;7.05;;;6.45;;
36585;SDS011;22591;48.314;11.562;2023-07-08T08:43:39;7.82;;;7.03;;
36585;SDS011;22591;48.314;11.562;2023-07-08T08:48:58;7.25;;;6.55;;
36585;SDS011;22591;48.314;11.562;2023-07-08T08:51:30;7.68;;;6.88;;
36585;SDS011;22591;48.314;11.562;2023-07-08T08:53:57;7.85;;;7.05;;
36585;SDS011;22591;48.314;11.562;2023-07-08T08:56:26;9.15;;;6.88;;
36585;SDS011;22591;48.314;11.562;2023-07-08T08:59:04;8.20;;;6.85;;
36585;SDS011;22591;48.314;11.562;2023-07-08T09:01:39;8.73;;;7.50;;
36585;SDS011;22591;48.314;11.562;2023-07-08T09:04:06;7.90;;;7.15;;
36585;SDS011;22591;48.314;11.562;2023-07-08T09:06:36;8.32;;;7.13;;
36585;SDS011;22591;48.314;11.562;2023-07-08T09:09:18;8.65;;;7.78;;
36585;SDS011;22591;48.314;11.562;2023-07-08T09:11:51;9.65;;;8.00;;
36585;SDS011;22591;48.314;11.562;2023-07-08T09:14:23;10.52;;;8.55;;
36585;SDS011;22591;48.314;11.562;2023-07-08T09:19:54;8.75;;;7.78;;
36585;SDS011;22591;48.314;11.562;2023-07-08T09:22:40;10.10;;;7.22;;
36585;SDS011;22591;48.314;11.562;2023-07-08T09:27:57;8.25;;;7.55;;
36585;SDS011;22591;48.314;11.562;2023-07-08T09:30:23;12.02;;;8.10;;
36585;SDS011;22591;48.314;11.562;2023-07-08T09:32:55;8.20;;;7.47;;
36585;SDS011;22591;48.314;11.562;2023-07-08T09:35:25;8.68;;;7.72;;
36585;SDS011;22591;48.314;11.562;2023-07-08T09:37:53;8.32;;;6.93;;
36585;SDS011;22591;48.314;11.562;2023-07-08T09:40:20;12.63;;;7.60;;
36585;SDS011;22591;48.314;11.562;2023-07-08T09:42:51;11.45;;;8.07;;
36585;SDS011;22591;48.314;11.562;2023-07-08T09:45:20;8.43;;;7.63;;
36585;SDS011;22591;48.314;11.562;2023-07-08T09:47:52;9.00;;;7.88;;
36585;SDS011;22591;48.314;11.562;2023-07-08T09:50:24;8.75;;;7.90;;
36585;SDS011;22591;48.314;11.562;2023-07-08T09:52:52;9.75;;;7.63;;
36585;SDS011;22591;48.314;11.562;2023-07-08T09:55:19;8.38;;;7.57;;
36585;SDS011;22591;48.314;11.562;2023-07-08T09:57:45;8.98;;;7.80;;
36585;SDS011;22591;48.314;11.562;2023-07-08T10:00:14;8.23;;;7.43;;
36585;SDS011;22591;48.314;11.562;2023-07-08T10:02:46;8.60;;;7.03;;
36585;SDS011;22591;48.314;11.562;2023-07-08T10:05:34;7.72;;;7.10;;
36585;SDS011;22591;48.314;11.562;2023-07-08T10:08:03;10.23;;;7.25;;
36585;SDS011;22591;48.314;11.562;2023-07-08T10:10:39;8.98;;;6.90;;
36585;SDS011;22591;48.314;11.562;2023-07-08T10:13:11;8.27;;;7.47;;
36585;SDS011;22591;48.314;11.562;2023-07-08T10:16:12;7.75;;;7.05;;
36585;SDS011;22591;48.314;11.562;2023-07-08T10:18:40;9.07;;;7.80;;
36585;SDS011;22591;48.314;11.562;2023-07-08T10:24:35;8.65;;;7.85;;
36585;SDS011;22591;48.314;11.562;2023-07-08T10:27:14;8.65;;;7.63;;
36585;SDS011;22591;48.314;11.562;2023-07-08T10:42:53;8.45;;;7.50;;
36585;SDS011;22591;48.314;11.562;2023-07-08T10:45:41;8.50;;;7.67;;
36585;SDS011;22591;48.314;11.562;2023-07-08T10:48:20;8.38;;;7.57;;
36585;SDS011;22591;48.314;11.562;2023-07-08T10:51:10;9.10;;;7.15;;
36585;SDS011;22591;48.314;11.562;2023-07-08T10:59:19;8.00;;;6.85;;
36585;SDS011;22591;48.314;11.562;2023-07-08T11:02:00;7.65;;;6.93;;
36585;SDS011;22591;48.314;11.562;2023-07-08T11:10:22;7.00;;;6.45;;
36585;SDS011;22591;48.314;11.562;2023-07-08T11:12:54;8.15;;;7.45;;
36585;SDS011;22591;48.314;11.562;2023-07-08T11:15:51;8.75;;;7.88;;
36585;SDS011;22591;48.314;11.562;2023-07-08T11:18:37;8.35;;;7.30;;
36585;SDS011;22591;48.314;11.562;2023-07-08T11:21:27;7.68;;;6.97;;
36585;SDS011;22591;48.314;11.562;2023-07-08T11:32:29;7.63;;;6.93;;
36585;SDS011;22591;48.314;11.562;2023-07-08T11:34:58;9.80;;;7.22;;
36585;SDS011;22591;48.314;11.562;2023-07-08T11:37:25;8.10;;;7.40;;
36585;SDS011;22591;48.314;11.562;2023-07-08T11:39:58;9.73;;;7.70;;
36585;SDS011;22591;48.314;11.562;2023-07-08T11:42:34;8.23;;;7.30;;
36585;SDS011;22591;48.314;11.562;2023-07-08T11:45:06;8.30;;;7.60;;
36585;SDS011;22591;48.314;11.562;2023-07-08T11:47:44;7.55;;;7.03;;
36585;SDS011;22591;48.314;11.562;2023-07-08T11:50:31;12.80;;;8.48;;
36585;SDS011;22591;48.314;11.562;2023-07-08T11:53:08;9.18;;;7.40;;
36585;SDS011;22591;48.314;11.562;2023-07-08T11:58:07;8.35;;;7.68;;
36585;SDS011;22591;48.314;11.562;2023-07-08T12:00:44;7.20;;;6.50;;
36585;SDS011;22591;48.314;11.562;2023-07-08T12:03:37;7.03;;;6.43;;
36585;SDS011;22591;48.314;11.562;2023-07-08T12:08:50;7.55;;;6.88;;
36585;SDS011;22591;48.314;11.562;2023-07-08T12:11:28;7.25;;;6.65;;
36585;SDS011;22591;48.314;11.562;2023-07-08T12:14:01;7.65;;;6.88;;
36585;SDS011;22591;48.314;11.562;2023-07-08T12:18:55;7.03;;;6.50;;
36585;SDS011;22591;48.314;11.562;2023-07-08T12:21:23;8.05;;;7.25;;
36585;SDS011;22591;48.314;11.562;2023-07-08T12:23:51;7.65;;;6.90;;
36585;SDS011;22591;48.314;11.562;2023-07-08T12:26:17;6.95;;;6.35;;
36585;SDS011;22591;48.314;11.562;2023-07-08T12:28:42;9.18;;;7.45;;
36585;SDS011;22591;48.314;11.562;2023-07-08T12:31:15;8.00;;;6.93;;
36585;SDS011;22591;48.314;11.562;2023-07-08T12:33:43;7.50;;;6.30;;
36585;SDS011;22591;48.314;11.562;2023-07-08T12:36:10;7.53;;;6.00;;
36585;SDS011;22591;48.314;11.562;2023-07-08T12:38:41;9.50;;;6.30;;
36585;SDS011;22591;48.314;11.562;2023-07-08T12:41:12;6.72;;;6.13;;
36585;SDS011;22591;48.314;11.562;2023-07-08T12:43:46;8.13;;;6.10;;
36585;SDS011;22591;48.314;11.562;2023-07-08T12:46:12;8.00;;;6.40;;
36585;SDS011;22591;48.314;11.562;2023-07-08T12:48:39;7.65;;;6.55;;
36585;SDS011;22591;48.314;11.562;2023-07-08T12:51:06;7.10;;;6.40;;
36585;SDS011;22591;48.314;11.562;2023-07-08T12:53:36;7.05;;;5.95;;
36585;SDS011;22591;48.314;11.562;2023-07-08T12:56:02;7.82;;;5.38;;
36585;SDS011;22591;48.314;11.562;2023-07-08T12:58:29;7.65;;;6.45;;
36585;SDS011;22591;48.314;11.562;2023-07-08T13:00:57;7.55;;;6.55;;
36585;SDS011;22591;48.314;11.562;2023-07-08T13:03:26;6.85;;;6.25;;
36585;SDS011;22591;48.314;11.562;2023-07-08T13:05:55;6.93;;;5.85;;
36585;SDS011;22591;48.314;11.562;2023-07-08T13:08:23;6.03;;;5.53;;
36585;SDS011;22591;48.314;11.562;2023-07-08T13:10:53;7.57;;;5.72;;
36585;SDS011;22591;48.314;11.562;2023-07-08T13:13:23;6.07;;;5.57;;
36585;SDS011;22591;48.314;11.562;2023-07-08T13:15:53;6.45;;;5.90;;
36585;SDS011;22591;48.314;11.562;2023-07-08T13:18:41;9.45;;;6.40;;
36585;SDS011;22591;48.314;11.562;2023-07-08T13:21:08;7.65;;;6.97;;
36585;SDS011;22591;48.314;11.562;2023-07-08T13:23:38;6.75;;;5.45;;
36585;SDS011;22591;48.314;11.562;2023-07-08T13:26:17;6.68;;;6.07;;
36585;SDS011;22591;48.314;11.562;2023-07-08T13:28:46;6.82;;;6.18;;
36585;SDS011;22591;48.314;11.562;2023-07-08T13:31:20;6.15;;;5.45;;
36585;SDS011;22591;48.314;11.562;2023-07-08T13:33:48;6.65;;;6.03;;
36585;SDS011;22591;48.314;11.562;2023-07-08T13:36:20;8.82;;;6.65;;
36585;SDS011;22591;48.314;11.562;2023-07-08T13:38:47;6.88;;;6.18;;
36585;SDS011;22591;48.314;11.562;2023-07-08T13:41:17;6.63;;;5.95;;
36585;SDS011;22591;48.314;11.562;2023-07-08T13:43:46;6.88;;;6.30;;
36585;SDS011;22591;48.314;11.562;2023-07-08T13:49:14;9.52;;;6.13;;
36585;SDS011;22591;48.314;11.562;2023-07-08T13:51:40;6.90;;;6.20;;
36585;SDS011;22591;48.314;11.562;2023-07-08T13:54:09;6.55;;;5.90;;
36585;SDS011;22591;48.314;11.562;2023-07-08T13:56:44;6.53;;;5.85;;
36585;SDS011;22591;48.314;11.562;2023-07-08T13:59:14;6.53;;;6.03;;
36585;SDS011;22591;48.314;11.562;2023-07-08T14:01:43;5.95;;;5.55;;
36585;SDS011;22591;48.314;11.562;2023-07-08T14:04:10;6.43;;;5.72;;
36585;SDS011;22591;48.314;11.562;2023-07-08T14:06:41;5.88;;;5.38;;
36585;SDS011;22591;48.314;11.562;2023-07-08T14:09:14;8.98;;;5.55;;
36585;SDS011;22591;48.314;11.562;2023-07-08T14:11:41;6.47;;;5.88;;
36585;SDS011;22591;48.314;11.562;2023-07-08T14:14:08;6.65;;;6.07;;
36585;SDS011;22591;48.314;11.562;2023-07-08T14:16:35;7.55;;;6.38;;
36585;SDS011;22591;48.314;11.562;2023-07-08T14:19:04;6.78;;;6.18;;
36585;SDS011;22591;48.314;11.562;2023-07-08T14:21:33;7.03;;;6.18;;
36585;SDS011;22591;48.314;11.562;2023-07-08T14:24:00;7.38;;;6.35;;
36585;SDS011;22591;48.314;11.562;2023-07-08T14:26:27;6.97;;;6.30;;
36585;SDS011;22591;48.314;11.562;2023-07-08T14:28:54;8.38;;;5.82;;
36585;SDS011;22591;48.314;11.562;2023-07-08T14:31:23;6.78;;;6.18;;
36585;SDS011;22591;48.314;11.562;2023-07-08T14:33:51;6.28;;;5.80;;
36585;SDS011;22591;48.314;11.562;2023-07-08T14:36:25;6.22;;;5.72;;
36585;SDS011;22591;48.314;11.562;2023-07-08T14:38:50;7.60;;;6.25;;
36585;SDS011;22591;48.314;11.562;2023-07-08T14:41:16;6.68;;;6.07;;
36585;SDS011;22591;48.314;11.562;2023-07-08T14:43:41;7.95;;;5.57;;
36585;SDS011;22591;48.314;11.562;2023-07-08T14:46:08;7.65;;;6.30;;
36585;SDS011;22591;48.314;11.562;2023-07-08T14:48:35;8.02;;;6.18;;
36585;SDS011;22591;48.314;11.562;2023-07-08T14:51:01;6.68;;;5.82;;
36585;SDS011;22591;48.314;11.562;2023-07-08T14:53:26;6.80;;;6.20;;
36585;SDS011;22591;48.314;11.562;2023-07-08T14:55:53;6.82;;;6.22;;
36585;SDS011;22591;48.314;11.562;2023-07-08T14:58:27;6.20;;;5.60;;
36585;SDS011;22591;48.314;11.562;2023-07-08T15:00:55;6.03;;;5.40;;
36585;SDS011;22591;48.314;11.562;2023-07-08T15:03:22;7.32;;;5.43;;
36585;SDS011;22591;48.314;11.562;2023-07-08T15:05:48;12.02;;;6.25;;
36585;SDS011;22591;48.314;11.562;2023-07-08T15:08:14;6.13;;;5.53;;
36585;SDS011;22591;48.314;11.562;2023-07-08T15:10:41;7.35;;;5.85;;
36585;SDS011;22591;48.314;11.562;2023-07-08T15:13:16;6.97;;;5.88;;
36585;SDS011;22591;48.314;11.562;2023-07-08T15:15:44;7.65;;;5.55;;
36585;SDS011;22591;48.314;11.562;2023-07-08T15:18:11;6.65;;;6.05;;
36585;SDS011;22591;48.314;11.562;2023-07-08T15:20:39;6.10;;;5.38;;
36585;SDS011;22591;48.314;11.562;2023-07-08T15:23:05;6.22;;;5.63;;
36585;SDS011;22591;48.314;11.562;2023-07-08T15:25:31;9.07;;;5.72;;
36585;SDS011;22591;48.314;11.562;2023-07-08T15:27:59;8.50;;;5.72;;
36585;SDS011;22591;48.314;11.562;2023-07-08T15:30:27;9.48;;;6.32;;
36585;SDS011;22591;48.314;11.562;2023-07-08T15:32:54;6.00;;;5.18;;
36585;SDS011;22591;48.314;11.562;2023-07-08T15:35:21;8.63;;;6.28;;
36585;SDS011;22591;48.314;11.562;2023-07-08T15:37:54;9.73;;;6.30;;
36585;SDS011;22591;48.314;11.562;2023-07-08T15:40:21;5.95;;;5.47;;
36585;SDS011;22591;48.314;11.562;2023-07-08T15:42:48;8.40;;;6.18;;
36585;SDS011;22591;48.314;11.562;2023-07-08T15:47:48;6.07;;;5.57;;